sensor_id;sensor_type;location;lat;lon;timestamp;pressure;altitude;pressure_sealevel;temperature;humidity
17209;BME280;8720;48.488;9.202;2023-05-24T00:00:03;97270.78;;;18.95;49.36
17209;BME280;8720;48.488;9.202;2023-05-24T00:02:35;97269.72;;;18.97;49.54
17209;BME280;8720;48.488;9.202;2023-05-24T00:05:03;97263.69;;;18.95;49.29
17209;BME280;8720;48.488;9.202;2023-05-24T00:07:32;97267.34;;;18.93;49.59
17209;BME280;8720;48.488;9.202;2023-05-24T00:10:00;97249.13;;;18.87;49.19
17209;BME280;8720;48.488;9.202;2023-05-24T00:12:27;97258.06;;;18.84;49.38
17209;BME280;8720;48.488;9.202;2023-05-24T00:14:56;97259.81;;;18.85;49.32
17209;BME280;8720;48.488;9.202;2023-05-24T00:17:23;97256.38;;;18.83;49.34
17209;BME280;8720;48.488;9.202;2023-05-24T00:19:51;97259.94;;;18.82;49.60
17209;BME280;8720;48.488;9.202;2023-05-24T00:22:19;97263.56;;;18.81;49.43
17209;BME280;8720;48.488;9.202;2023-05-24T00:24:47;97256.59;;;18.79;49.44
17209;BME280;8720;48.488;9.202;2023-05-24T00:27:14;97254.28;;;18.73;49.18
17209;BME280;8720;48.488;9.202;2023-05-24T00:29:42;97256.22;;;18.69;49.62
17209;BME280;8720;48.488;9.202;2023-05-24T00:32:10;97247.69;;;18.64;49.48
17209;BME280;8720;48.488;9.202;2023-05-24T00:34:37;97248.84;;;18.59;49.62
17209;BME280;8720;48.488;9.202;2023-05-24T00:37:05;97247.44;;;18.52;49.46
17209;BME280;8720;48.488;9.202;2023-05-24T00:39:32;97238.03;;;18.46;49.68
17209;BME280;8720;48.488;9.202;2023-05-24T00:41:59;97241.53;;;18.47;49.56
17209;BME280;8720;48.488;9.202;2023-05-24T00:44:27;97243.50;;;18.43;49.38
17209;BME280;8720;48.488;9.202;2023-05-24T00:46:54;97237.38;;;18.41;49.51
17209;BME280;8720;48.488;9.202;2023-05-24T00:49:23;97224.75;;;18.29;49.48
17209;BME280;8720;48.488;9.202;2023-05-24T00:51:52;97240.66;;;18.29;49.72
17209;BME280;8720;48.488;9.202;2023-05-24T00:54:20;97238.09;;;18.28;49.89
17209;BME280;8720;48.488;9.202;2023-05-24T00:56:48;97238.09;;;18.28;50.01
17209;BME280;8720;48.488;9.202;2023-05-24T00:59:16;97242.50;;;18.27;49.93
17209;BME280;8720;48.488;9.202;2023-05-24T01:01:44;97243.44;;;18.26;49.85
17209;BME280;8720;48.488;9.202;2023-05-24T01:04:13;97237.31;;;18.26;50.05
17209;BME280;8720;48.488;9.202;2023-05-24T01:07:03;97229.44;;;18.24;50.08
17209;BME280;8720;48.488;9.202;2023-05-24T01:09:44;97231.22;;;18.24;50.12
17209;BME280;8720;48.488;9.202;2023-05-24T01:12:25;97240.09;;;18.23;49.95
17209;BME280;8720;48.488;9.202;2023-05-24T01:15:06;97239.31;;;18.21;49.97
17209;BME280;8720;48.488;9.202;2023-05-24T01:17:45;97242.22;;;18.16;49.81
17209;BME280;8720;48.488;9.202;2023-05-24T01:20:17;97249.19;;;18.17;50.04
17209;BME280;8720;48.488;9.202;2023-05-24T01:23:04;97246.63;;;18.15;49.96
17209;BME280;8720;48.488;9.202;2023-05-24T01:26:17;97251.94;;;18.15;49.66
17209;BME280;8720;48.488;9.202;2023-05-24T01:28:48;97245.00;;;18.13;49.74
17209;BME280;8720;48.488;9.202;2023-05-24T01:31:17;97243.22;;;18.13;50.23
17209;BME280;8720;48.488;9.202;2023-05-24T01:33:48;97245.84;;;18.13;49.90
17209;BME280;8720;48.488;9.202;2023-05-24T01:36:18;97248.19;;;18.20;50.01
17209;BME280;8720;48.488;9.202;2023-05-24T01:38:49;97245.47;;;18.21;49.86
17209;BME280;8720;48.488;9.202;2023-05-24T01:41:28;97251.63;;;18.22;49.65
17209;BME280;8720;48.488;9.202;2023-05-24T01:44:12;97251.63;;;18.22;49.42
17209;BME280;8720;48.488;9.202;2023-05-24T01:46:46;97245.25;;;18.26;49.46
17209;BME280;8720;48.488;9.202;2023-05-24T01:49:23;97233.97;;;18.22;49.43
17209;BME280;8720;48.488;9.202;2023-05-24T01:52:01;97243.44;;;18.26;49.07
17209;BME280;8720;48.488;9.202;2023-05-24T01:54:33;97250.63;;;18.24;49.14
17209;BME280;8720;48.488;9.202;2023-05-24T01:57:06;97240.88;;;18.25;48.88
17209;BME280;8720;48.488;9.202;2023-05-24T01:59:38;97245.16;;;18.27;48.72
17209;BME280;8720;48.488;9.202;2023-05-24T02:02:08;97248.69;;;18.28;48.33
17209;BME280;8720;48.488;9.202;2023-05-24T02:04:36;97240.78;;;18.26;48.14
17209;BME280;8720;48.488;9.202;2023-05-24T02:07:04;97246.88;;;18.28;48.27
17209;BME280;8720;48.488;9.202;2023-05-24T02:09:31;97232.41;;;18.18;47.88
17209;BME280;8720;48.488;9.202;2023-05-24T02:11:58;97241.13;;;18.20;47.68
17209;BME280;8720;48.488;9.202;2023-05-24T02:14:26;97229.97;;;18.13;47.90
17209;BME280;8720;48.488;9.202;2023-05-24T02:16:55;97236.97;;;18.14;47.95
17209;BME280;8720;48.488;9.202;2023-05-24T02:19:23;97237.75;;;18.16;47.62
17209;BME280;8720;48.488;9.202;2023-05-24T02:21:51;97233.41;;;18.15;47.61
17209;BME280;8720;48.488;9.202;2023-05-24T02:24:18;97239.69;;;18.13;47.65
17209;BME280;8720;48.488;9.202;2023-05-24T02:26:45;97239.78;;;18.11;47.56
17209;BME280;8720;48.488;9.202;2023-05-24T02:29:13;97243.22;;;18.13;47.24
17209;BME280;8720;48.488;9.202;2023-05-24T02:31:40;97236.22;;;18.12;47.43
17209;BME280;8720;48.488;9.202;2023-05-24T02:34:09;97238.00;;;18.12;46.91
17209;BME280;8720;48.488;9.202;2023-05-24T02:36:36;97236.22;;;18.12;47.35
17209;BME280;8720;48.488;9.202;2023-05-24T02:39:04;97234.47;;;18.11;47.06
17209;BME280;8720;48.488;9.202;2023-05-24T02:41:31;97238.09;;;18.10;46.82
17209;BME280;8720;48.488;9.202;2023-05-24T02:43:58;97237.13;;;18.11;46.76
17209;BME280;8720;48.488;9.202;2023-05-24T02:46:25;97235.34;;;18.12;46.99
17209;BME280;8720;48.488;9.202;2023-05-24T02:48:53;97237.13;;;18.11;47.36
17209;BME280;8720;48.488;9.202;2023-05-24T02:51:21;97238.09;;;18.10;47.03
17209;BME280;8720;48.488;9.202;2023-05-24T02:53:49;97235.44;;;18.10;47.27
17209;BME280;8720;48.488;9.202;2023-05-24T02:56:16;97238.22;;;18.07;47.30
17209;BME280;8720;48.488;9.202;2023-05-24T02:58:44;97234.78;;;18.05;47.18
17209;BME280;8720;48.488;9.202;2023-05-24T03:01:11;97235.97;;;18.00;47.01
17209;BME280;8720;48.488;9.202;2023-05-24T03:03:39;97233.53;;;17.95;47.11
17209;BME280;8720;48.488;9.202;2023-05-24T03:06:07;97242.63;;;17.90;47.11
17209;BME280;8720;48.488;9.202;2023-05-24T03:08:35;97240.28;;;17.84;46.94
17209;BME280;8720;48.488;9.202;2023-05-24T03:11:04;97239.75;;;17.77;46.86
17209;BME280;8720;48.488;9.202;2023-05-24T03:13:31;97247.91;;;17.73;47.12
17209;BME280;8720;48.488;9.202;2023-05-24T03:15:58;97248.97;;;17.69;47.21
17209;BME280;8720;48.488;9.202;2023-05-24T03:18:26;97248.19;;;17.67;47.08
17209;BME280;8720;48.488;9.202;2023-05-24T03:20:54;97243.94;;;17.64;47.09
17209;BME280;8720;48.488;9.202;2023-05-24T03:23:21;97251.06;;;17.62;47.15
17209;BME280;8720;48.488;9.202;2023-05-24T03:25:50;97252.97;;;17.59;47.10
17209;BME280;8720;48.488;9.202;2023-05-24T03:28:18;97243.63;;;17.52;47.25
17209;BME280;8720;48.488;9.202;2023-05-24T03:30:47;97249.78;;;17.52;46.98
17209;BME280;8720;48.488;9.202;2023-05-24T03:33:15;97249.91;;;17.49;47.24
17209;BME280;8720;48.488;9.202;2023-05-24T03:35:42;97247.47;;;17.45;47.31
17209;BME280;8720;48.488;9.202;2023-05-24T03:38:10;97247.63;;;17.42;47.44
17209;BME280;8720;48.488;9.202;2023-05-24T03:40:39;97256.63;;;17.38;47.42
17209;BME280;8720;48.488;9.202;2023-05-24T03:43:14;97255.13;;;17.32;47.21
17209;BME280;8720;48.488;9.202;2023-05-24T03:45:46;97245.84;;;17.23;47.43
17209;BME280;8720;48.488;9.202;2023-05-24T03:48:14;97256.34;;;17.25;47.36
17209;BME280;8720;48.488;9.202;2023-05-24T03:50:41;97251.50;;;17.16;47.38
17209;BME280;8720;48.488;9.202;2023-05-24T03:53:09;97268.94;;;17.20;47.69
17209;BME280;8720;48.488;9.202;2023-05-24T03:55:37;97261.91;;;17.19;47.58
17209;BME280;8720;48.488;9.202;2023-05-24T03:58:05;97260.22;;;17.18;47.68
17209;BME280;8720;48.488;9.202;2023-05-24T04:00:33;97263.78;;;17.17;47.75
17209;BME280;8720;48.488;9.202;2023-05-24T04:03:01;97270.00;;;17.16;47.62
17209;BME280;8720;48.488;9.202;2023-05-24T04:05:32;97267.34;;;17.16;47.52
17209;BME280;8720;48.488;9.202;2023-05-24T04:07:59;97265.72;;;17.13;47.57
17209;BME280;8720;48.488;9.202;2023-05-24T04:10:26;97269.34;;;17.11;47.48
17209;BME280;8720;48.488;9.202;2023-05-24T04:12:53;97264.31;;;17.05;47.78
17209;BME280;8720;48.488;9.202;2023-05-24T04:15:22;97263.50;;;17.04;47.74
17209;BME280;8720;48.488;9.202;2023-05-24T04:17:50;97268.00;;;17.02;47.90
17209;BME280;8720;48.488;9.202;2023-05-24T04:20:21;97273.31;;;17.01;47.93
17209;BME280;8720;48.488;9.202;2023-05-24T04:22:50;97265.63;;;16.96;47.93
17209;BME280;8720;48.488;9.202;2023-05-24T04:25:17;97265.63;;;16.96;48.29
17209;BME280;8720;48.488;9.202;2023-05-24T04:27:45;97272.84;;;16.93;48.14
17209;BME280;8720;48.488;9.202;2023-05-24T04:30:14;97270.22;;;16.91;48.04
17209;BME280;8720;48.488;9.202;2023-05-24T04:32:42;97273.75;;;16.92;48.22
17209;BME280;8720;48.488;9.202;2023-05-24T04:35:12;97277.25;;;16.92;47.97
17209;BME280;8720;48.488;9.202;2023-05-24T04:37:40;97269.25;;;16.94;47.90
17209;BME280;8720;48.488;9.202;2023-05-24T04:40:09;97266.44;;;16.97;48.23
17209;BME280;8720;48.488;9.202;2023-05-24T04:42:36;97268.19;;;16.98;48.25
17209;BME280;8720;48.488;9.202;2023-05-24T04:45:05;97265.47;;;16.99;48.18
17209;BME280;8720;48.488;9.202;2023-05-24T04:47:32;97261.91;;;17.00;48.03
17209;BME280;8720;48.488;9.202;2023-05-24T04:49:59;97259.19;;;17.02;48.29
17209;BME280;8720;48.488;9.202;2023-05-24T04:52:28;97253.75;;;17.05;48.01
17209;BME280;8720;48.488;9.202;2023-05-24T04:54:58;97251.91;;;17.07;48.11
17209;BME280;8720;48.488;9.202;2023-05-24T04:57:25;97258.75;;;17.11;48.12
17209;BME280;8720;48.488;9.202;2023-05-24T04:59:52;97257.84;;;17.12;48.08
17209;BME280;8720;48.488;9.202;2023-05-24T05:02:20;97255.22;;;17.12;48.17
17209;BME280;8720;48.488;9.202;2023-05-24T05:04:47;97248.09;;;17.12;48.29
17209;BME280;8720;48.488;9.202;2023-05-24T05:07:14;97254.34;;;17.11;48.30
17209;BME280;8720;48.488;9.202;2023-05-24T05:09:43;97253.47;;;17.11;48.16
17209;BME280;8720;48.488;9.202;2023-05-24T05:12:10;97256.03;;;17.12;48.13
17209;BME280;8720;48.488;9.202;2023-05-24T05:14:38;97263.94;;;17.14;48.24
17209;BME280;8720;48.488;9.202;2023-05-24T05:17:05;97253.34;;;17.14;48.10
17209;BME280;8720;48.488;9.202;2023-05-24T05:19:32;97265.50;;;17.18;48.08
17209;BME280;8720;48.488;9.202;2023-05-24T05:22:00;97265.34;;;17.21;48.14
17209;BME280;8720;48.488;9.202;2023-05-24T05:24:27;97277.63;;;17.22;48.20
17209;BME280;8720;48.488;9.202;2023-05-24T05:26:56;97267.91;;;17.22;48.23
17209;BME280;8720;48.488;9.202;2023-05-24T05:29:23;97272.28;;;17.23;48.07
17209;BME280;8720;48.488;9.202;2023-05-24T05:31:50;97280.22;;;17.23;48.08
17209;BME280;8720;48.488;9.202;2023-05-24T05:34:18;97276.88;;;17.20;48.06
17209;BME280;8720;48.488;9.202;2023-05-24T05:36:46;97282.34;;;17.15;48.23
17209;BME280;8720;48.488;9.202;2023-05-24T05:39:13;97275.41;;;17.13;48.35
17209;BME280;8720;48.488;9.202;2023-05-24T05:41:41;97278.94;;;17.13;48.50
17209;BME280;8720;48.488;9.202;2023-05-24T05:44:11;97279.63;;;17.17;48.32
17209;BME280;8720;48.488;9.202;2023-05-24T05:46:38;97282.19;;;17.18;48.41
17209;BME280;8720;48.488;9.202;2023-05-24T05:49:08;97283.16;;;17.17;48.26
17209;BME280;8720;48.488;9.202;2023-05-24T05:51:36;97283.06;;;17.19;48.08
17209;BME280;8720;48.488;9.202;2023-05-24T05:54:04;97275.28;;;17.16;48.13
17209;BME280;8720;48.488;9.202;2023-05-24T05:56:32;97277.94;;;17.16;48.25
17209;BME280;8720;48.488;9.202;2023-05-24T05:59:04;97279.78;;;17.14;48.20
17209;BME280;8720;48.488;9.202;2023-05-24T06:01:32;97281.50;;;17.15;48.12
17209;BME280;8720;48.488;9.202;2023-05-24T06:04:00;97279.78;;;17.14;48.23
17209;BME280;8720;48.488;9.202;2023-05-24T06:06:27;97281.41;;;17.16;48.40
17209;BME280;8720;48.488;9.202;2023-05-24T06:08:54;97278.56;;;17.21;48.26
17209;BME280;8720;48.488;9.202;2023-05-24T06:11:21;97290.72;;;17.25;48.03
17209;BME280;8720;48.488;9.202;2023-05-24T06:13:49;97286.22;;;17.27;48.30
17209;BME280;8720;48.488;9.202;2023-05-24T06:16:16;97286.03;;;17.32;48.10
17209;BME280;8720;48.488;9.202;2023-05-24T06:18:45;97282.34;;;17.34;48.10
17209;BME280;8720;48.488;9.202;2023-05-24T06:21:12;97275.38;;;17.33;47.69
17209;BME280;8720;48.488;9.202;2023-05-24T06:23:39;97280.56;;;17.35;47.78
17209;BME280;8720;48.488;9.202;2023-05-24T06:26:08;97293.00;;;17.33;47.58
17209;BME280;8720;48.488;9.202;2023-05-24T06:28:36;97291.34;;;17.30;48.12
17209;BME280;8720;48.488;9.202;2023-05-24T06:31:04;97291.22;;;17.33;47.77
17209;BME280;8720;48.488;9.202;2023-05-24T06:33:31;97295.47;;;17.37;47.73
17209;BME280;8720;48.488;9.202;2023-05-24T06:36:00;97293.53;;;17.41;48.04
17209;BME280;8720;48.488;9.202;2023-05-24T06:38:27;97296.88;;;17.44;47.95
17209;BME280;8720;48.488;9.202;2023-05-24T06:40:54;97290.56;;;17.48;47.74
17209;BME280;8720;48.488;9.202;2023-05-24T06:43:22;97284.09;;;17.54;47.40
17209;BME280;8720;48.488;9.202;2023-05-24T06:45:49;97287.25;;;17.62;47.56
17209;BME280;8720;48.488;9.202;2023-05-24T06:48:16;97288.53;;;17.72;47.32
17209;BME280;8720;48.488;9.202;2023-05-24T06:50:44;97290.72;;;17.81;47.33
17209;BME280;8720;48.488;9.202;2023-05-24T06:53:14;97301.56;;;17.93;47.00
17209;BME280;8720;48.488;9.202;2023-05-24T06:55:41;97295.06;;;18.00;46.87
17209;BME280;8720;48.488;9.202;2023-05-24T06:58:08;97298.69;;;18.34;45.31
17209;BME280;8720;48.488;9.202;2023-05-24T07:00:39;97300.97;;;18.41;46.06
17209;BME280;8720;48.488;9.202;2023-05-24T07:03:08;97297.09;;;18.48;45.99
17209;BME280;8720;48.488;9.202;2023-05-24T07:05:36;97300.34;;;18.53;45.75
17209;BME280;8720;48.488;9.202;2023-05-24T07:08:03;97301.00;;;18.58;45.78
17209;BME280;8720;48.488;9.202;2023-05-24T07:10:33;97300.28;;;18.72;45.96
17209;BME280;8720;48.488;9.202;2023-05-24T07:13:00;97309.41;;;18.83;45.96
17209;BME280;8720;48.488;9.202;2023-05-24T07:15:28;97309.13;;;18.88;45.73
17209;BME280;8720;48.488;9.202;2023-05-24T07:17:56;97309.00;;;18.91;45.18
17209;BME280;8720;48.488;9.202;2023-05-24T07:20:23;97312.44;;;18.93;45.21
17209;BME280;8720;48.488;9.202;2023-05-24T07:22:51;97315.06;;;18.93;45.25
17209;BME280;8720;48.488;9.202;2023-05-24T07:25:18;97310.63;;;18.93;45.17
17209;BME280;8720;48.488;9.202;2023-05-24T07:27:47;97310.69;;;18.92;45.19
17209;BME280;8720;48.488;9.202;2023-05-24T07:30:15;97311.72;;;18.89;44.97
17209;BME280;8720;48.488;9.202;2023-05-24T07:32:42;97310.88;;;18.89;45.11
17209;BME280;8720;48.488;9.202;2023-05-24T07:35:11;97304.78;;;18.87;45.07
17209;BME280;8720;48.488;9.202;2023-05-24T07:37:39;97317.72;;;18.93;45.02
17209;BME280;8720;48.488;9.202;2023-05-24T07:40:08;97308.03;;;18.92;44.94
17209;BME280;8720;48.488;9.202;2023-05-24T07:42:36;97309.59;;;18.96;44.76
17209;BME280;8720;48.488;9.202;2023-05-24T07:45:07;97312.16;;;18.97;44.67
17209;BME280;8720;48.488;9.202;2023-05-24T07:47:35;97320.97;;;18.98;44.79
17209;BME280;8720;48.488;9.202;2023-05-24T07:50:04;97331.44;;;19.01;45.00
17209;BME280;8720;48.488;9.202;2023-05-24T07:52:31;97328.94;;;18.98;45.19
17209;BME280;8720;48.488;9.202;2023-05-24T07:54:59;97337.16;;;18.93;44.98
17209;BME280;8720;48.488;9.202;2023-05-24T07:57:27;97331.13;;;18.90;44.72
17209;BME280;8720;48.488;9.202;2023-05-24T07:59:54;97339.16;;;18.88;44.70
17209;BME280;8720;48.488;9.202;2023-05-24T08:02:23;97346.25;;;18.88;44.57
17209;BME280;8720;48.488;9.202;2023-05-24T08:04:51;97348.22;;;18.84;44.59
17209;BME280;8720;48.488;9.202;2023-05-24T08:07:18;97352.81;;;18.81;44.94
17209;BME280;8720;48.488;9.202;2023-05-24T08:09:46;97344.16;;;18.77;44.73
17209;BME280;8720;48.488;9.202;2023-05-24T08:12:13;97357.44;;;18.77;44.95
17209;BME280;8720;48.488;9.202;2023-05-24T08:14:40;97350.38;;;18.76;44.62
17209;BME280;8720;48.488;9.202;2023-05-24T08:17:08;97353.28;;;18.72;44.35
17209;BME280;8720;48.488;9.202;2023-05-24T08:19:36;97357.72;;;18.71;44.54
17209;BME280;8720;48.488;9.202;2023-05-24T08:22:04;97361.47;;;18.67;44.72
17209;BME280;8720;48.488;9.202;2023-05-24T08:24:32;97352.22;;;18.59;44.55
17209;BME280;8720;48.488;9.202;2023-05-24T08:26:59;97360.91;;;18.61;44.39
17209;BME280;8720;48.488;9.202;2023-05-24T08:29:27;97361.25;;;18.55;44.56
17209;BME280;8720;48.488;9.202;2023-05-24T08:31:55;97371.97;;;18.52;44.62
17209;BME280;8720;48.488;9.202;2023-05-24T08:34:22;97361.69;;;18.46;44.47
17209;BME280;8720;48.488;9.202;2023-05-24T08:36:51;97365.47;;;18.40;44.37
17209;BME280;8720;48.488;9.202;2023-05-24T08:39:20;97349.75;;;18.18;44.51
17209;BME280;8720;48.488;9.202;2023-05-24T08:41:47;97367.00;;;18.27;44.53
17209;BME280;8720;48.488;9.202;2023-05-24T08:44:15;97367.00;;;18.27;44.57
17209;BME280;8720;48.488;9.202;2023-05-24T08:46:43;97363.72;;;18.22;44.76
17209;BME280;8720;48.488;9.202;2023-05-24T08:49:11;97371.19;;;18.14;44.95
17209;BME280;8720;48.488;9.202;2023-05-24T08:51:40;97375.03;;;18.07;44.86
17209;BME280;8720;48.488;9.202;2023-05-24T08:54:10;97377.28;;;17.97;45.04
17209;BME280;8720;48.488;9.202;2023-05-24T08:56:39;97372.63;;;17.84;45.30
17209;BME280;8720;48.488;9.202;2023-05-24T08:59:08;97373.50;;;17.84;45.52
17209;BME280;8720;48.488;9.202;2023-05-24T09:01:38;97370.28;;;17.78;45.48
17209;BME280;8720;48.488;9.202;2023-05-24T09:04:07;97370.41;;;17.75;46.03
17209;BME280;8720;48.488;9.202;2023-05-24T09:06:35;97376.41;;;17.78;45.86
17209;BME280;8720;48.488;9.202;2023-05-24T09:09:03;97383.28;;;17.82;46.11
17209;BME280;8720;48.488;9.202;2023-05-24T09:11:34;97382.13;;;17.88;45.74
17209;BME280;8720;48.488;9.202;2023-05-24T09:14:02;97384.41;;;17.95;45.63
17209;BME280;8720;48.488;9.202;2023-05-24T09:16:29;97381.28;;;18.06;45.83
17209;BME280;8720;48.488;9.202;2023-05-24T09:18:57;97384.97;;;18.21;45.78
17209;BME280;8720;48.488;9.202;2023-05-24T09:21:25;97387.97;;;18.32;45.36
17209;BME280;8720;48.488;9.202;2023-05-24T09:23:55;97387.53;;;18.41;45.41
17209;BME280;8720;48.488;9.202;2023-05-24T09:26:22;97389.75;;;18.50;45.36
17209;BME280;8720;48.488;9.202;2023-05-24T09:28:54;97393.88;;;18.55;45.10
17209;BME280;8720;48.488;9.202;2023-05-24T09:31:32;97385.88;;;18.57;44.80
17209;BME280;8720;48.488;9.202;2023-05-24T09:33:59;97379.63;;;18.58;45.42
17209;BME280;8720;48.488;9.202;2023-05-24T09:36:28;97383.69;;;18.65;45.21
17209;BME280;8720;48.488;9.202;2023-05-24T09:39:06;97381.38;;;18.76;45.38
17209;BME280;8720;48.488;9.202;2023-05-24T09:41:36;97384.00;;;18.93;44.87
17209;BME280;8720;48.488;9.202;2023-05-24T09:44:05;97371.66;;;19.09;44.88
17209;BME280;8720;48.488;9.202;2023-05-24T09:46:36;97370.78;;;19.26;44.85
17209;BME280;8720;48.488;9.202;2023-05-24T09:49:04;97368.38;;;19.38;44.54
17209;BME280;8720;48.488;9.202;2023-05-24T09:51:36;97366.44;;;19.42;44.27
17209;BME280;8720;48.488;9.202;2023-05-24T09:54:05;97372.63;;;19.58;44.34
17209;BME280;8720;48.488;9.202;2023-05-24T09:56:33;97363.31;;;19.66;44.12
17209;BME280;8720;48.488;9.202;2023-05-24T09:59:07;97370.16;;;19.70;43.52
17209;BME280;8720;48.488;9.202;2023-05-24T10:01:34;97360.47;;;19.69;43.45
17209;BME280;8720;48.488;9.202;2023-05-24T10:04:02;97375.22;;;19.75;43.77
17209;BME280;8720;48.488;9.202;2023-05-24T10:06:35;97370.66;;;19.77;43.75
17209;BME280;8720;48.488;9.202;2023-05-24T10:09:04;97349.91;;;19.52;43.66
17209;BME280;8720;48.488;9.202;2023-05-24T10:11:35;97365.19;;;19.64;43.36
17209;BME280;8720;48.488;9.202;2023-05-24T10:14:07;97368.84;;;19.62;43.46
17209;BME280;8720;48.488;9.202;2023-05-24T10:16:35;97361.91;;;19.59;43.36
17209;BME280;8720;48.488;9.202;2023-05-24T10:19:03;97373.28;;;19.61;43.49
17209;BME280;8720;48.488;9.202;2023-05-24T10:21:31;97374.16;;;19.62;43.09
17209;BME280;8720;48.488;9.202;2023-05-24T10:24:04;97372.28;;;19.64;43.03
17209;BME280;8720;48.488;9.202;2023-05-24T10:26:33;97371.41;;;19.63;43.24
17209;BME280;8720;48.488;9.202;2023-05-24T10:29:10;97378.59;;;19.61;42.63
17209;BME280;8720;48.488;9.202;2023-05-24T10:31:43;97381.53;;;19.57;42.62
17209;BME280;8720;48.488;9.202;2023-05-24T10:34:11;97378.19;;;19.53;42.95
17209;BME280;8720;48.488;9.202;2023-05-24T10:36:39;97367.13;;;19.45;42.76
17209;BME280;8720;48.488;9.202;2023-05-24T10:39:09;97366.97;;;19.31;42.65
17209;BME280;8720;48.488;9.202;2023-05-24T10:41:41;97368.06;;;19.27;42.77
17209;BME280;8720;48.488;9.202;2023-05-24T10:44:17;97363.94;;;19.22;42.78
17209;BME280;8720;48.488;9.202;2023-05-24T10:47:07;97366.13;;;19.14;42.82
17209;BME280;8720;48.488;9.202;2023-05-24T10:49:35;97366.53;;;19.06;42.74
17209;BME280;8720;48.488;9.202;2023-05-24T10:52:08;97374.28;;;18.93;42.96
17209;BME280;8720;48.488;9.202;2023-05-24T10:54:36;97379.88;;;18.87;43.01
17209;BME280;8720;48.488;9.202;2023-05-24T10:57:05;97382.84;;;18.81;42.67
17209;BME280;8720;48.488;9.202;2023-05-24T10:59:36;97368.25;;;18.73;43.02
17209;BME280;8720;48.488;9.202;2023-05-24T11:02:06;97366.63;;;18.70;42.68
17209;BME280;8720;48.488;9.202;2023-05-24T11:04:40;97374.81;;;18.66;42.81
17209;BME280;8720;48.488;9.202;2023-05-24T11:07:10;97373.25;;;18.62;42.85
17209;BME280;8720;48.488;9.202;2023-05-24T11:09:41;97373.31;;;18.60;43.11
17209;BME280;8720;48.488;9.202;2023-05-24T11:12:15;97365.03;;;18.49;42.89
17209;BME280;8720;48.488;9.202;2023-05-24T11:14:48;97368.03;;;18.42;43.02
17209;BME280;8720;48.488;9.202;2023-05-24T11:17:18;97368.28;;;18.37;43.50
17209;BME280;8720;48.488;9.202;2023-05-24T11:19:48;97372.88;;;18.34;42.91
17209;BME280;8720;48.488;9.202;2023-05-24T11:22:19;97366.91;;;18.29;43.44
17209;BME280;8720;48.488;9.202;2023-05-24T11:24:46;97364.28;;;18.29;43.17
17209;BME280;8720;48.488;9.202;2023-05-24T11:27:14;97363.66;;;18.24;43.46
17209;BME280;8720;48.488;9.202;2023-05-24T11:29:43;97364.56;;;18.23;43.12
17209;BME280;8720;48.488;9.202;2023-05-24T11:32:17;97370.94;;;18.18;43.40
17209;BME280;8720;48.488;9.202;2023-05-24T11:34:45;97362.28;;;18.15;43.40
17209;BME280;8720;48.488;9.202;2023-05-24T11:37:13;97367.59;;;18.15;43.64
17209;BME280;8720;48.488;9.202;2023-05-24T11:39:41;97369.38;;;18.14;43.52
17209;BME280;8720;48.488;9.202;2023-05-24T11:42:08;97365.03;;;18.13;43.22
17209;BME280;8720;48.488;9.202;2023-05-24T11:44:36;97364.25;;;18.11;43.24
17209;BME280;8720;48.488;9.202;2023-05-24T11:47:05;97357.38;;;18.07;43.63
17209;BME280;8720;48.488;9.202;2023-05-24T11:49:34;97366.19;;;18.08;43.47
17209;BME280;8720;48.488;9.202;2023-05-24T11:52:02;97361.66;;;18.10;43.01
17209;BME280;8720;48.488;9.202;2023-05-24T11:54:30;97366.88;;;18.11;43.18
17209;BME280;8720;48.488;9.202;2023-05-24T11:56:59;97359.72;;;18.13;43.33
17209;BME280;8720;48.488;9.202;2023-05-24T11:59:28;97363.00;;;18.18;43.11
17209;BME280;8720;48.488;9.202;2023-05-24T12:02:02;97362.16;;;18.18;43.13
17209;BME280;8720;48.488;9.202;2023-05-24T12:04:31;97356.13;;;18.14;43.29
17209;BME280;8720;48.488;9.202;2023-05-24T12:07:01;97358.84;;;18.13;43.39
17209;BME280;8720;48.488;9.202;2023-05-24T12:09:28;97362.16;;;18.18;43.69
17209;BME280;8720;48.488;9.202;2023-05-24T12:11:56;97360.22;;;18.22;43.69
17209;BME280;8720;48.488;9.202;2023-05-24T12:14:26;97359.22;;;18.24;43.32
17209;BME280;8720;48.488;9.202;2023-05-24T12:16:56;97352.97;;;18.25;43.39
17209;BME280;8720;48.488;9.202;2023-05-24T12:19:24;97356.56;;;18.24;43.66
17209;BME280;8720;48.488;9.202;2023-05-24T12:21:56;97358.09;;;18.28;43.46
17209;BME280;8720;48.488;9.202;2023-05-24T12:24:26;97356.97;;;18.34;43.55
17209;BME280;8720;48.488;9.202;2023-05-24T12:26:59;97362.28;;;18.34;43.79
17209;BME280;8720;48.488;9.202;2023-05-24T12:29:33;97357.13;;;18.31;43.54
17209;BME280;8720;48.488;9.202;2023-05-24T12:32:01;97362.28;;;18.34;43.40
17209;BME280;8720;48.488;9.202;2023-05-24T12:34:29;97359.38;;;18.38;43.57
17209;BME280;8720;48.488;9.202;2023-05-24T12:36:56;97362.81;;;18.40;43.29
17209;BME280;8720;48.488;9.202;2023-05-24T12:39:27;97347.66;;;18.44;43.46
17209;BME280;8720;48.488;9.202;2023-05-24T12:41:57;97354.50;;;18.48;43.45
17209;BME280;8720;48.488;9.202;2023-05-24T12:44:28;97358.81;;;18.50;43.09
17209;BME280;8720;48.488;9.202;2023-05-24T12:46:57;97355.00;;;18.56;43.24
17209;BME280;8720;48.488;9.202;2023-05-24T12:49:25;97349.38;;;18.62;42.64
17209;BME280;8720;48.488;9.202;2023-05-24T12:51:54;97352.50;;;18.70;43.01
17209;BME280;8720;48.488;9.202;2023-05-24T12:54:26;97354.69;;;18.79;42.76
17209;BME280;8720;48.488;9.202;2023-05-24T12:56:55;97347.50;;;18.81;42.77
17209;BME280;8720;48.488;9.202;2023-05-24T12:59:25;97354.22;;;18.88;42.58
17209;BME280;8720;48.488;9.202;2023-05-24T13:01:53;97371.38;;;18.98;42.71
17209;BME280;8720;48.488;9.202;2023-05-24T13:04:23;97362.09;;;19.07;42.33
17209;BME280;8720;48.488;9.202;2023-05-24T13:06:51;97358.09;;;19.15;42.34
17209;BME280;8720;48.488;9.202;2023-05-24T13:09:18;97354.00;;;19.25;41.85
17209;BME280;8720;48.488;9.202;2023-05-24T13:11:49;97355.41;;;19.32;41.88
17209;BME280;8720;48.488;9.202;2023-05-24T13:14:17;97352.72;;;19.34;41.73
17209;BME280;8720;48.488;9.202;2023-05-24T13:16:45;97344.34;;;19.41;41.01
17209;BME280;8720;48.488;9.202;2023-05-24T13:19:13;97338.84;;;19.44;40.90